Time;durP1;ratioP1;P1;durP2;ratioP2;P2;SDS_P1;SDS_P2;PMS_P1;PMS_P2;Temp;Humidity;BMP_temperature;BMP_pressure;BME280_temperature;BME280_humidity;BME280_pressure;Samples;Min_cycle;Max_cycle;Signal;HPM_P1;HPM_P2
2022/10/21 00:01:28;;;;;;;34.92;18.95;;;14.50;99.90;;;;;;4992097;28;20034;-77
2022/10/21 00:03:54;;;;;;;38.42;18.27;;;14.40;99.90;;;;;;4991943;28;20038;-78
2022/10/21 00:06:20;;;;;;;39.65;19.40;;;14.40;99.90;;;;;;4991497;28;20033;-78
2022/10/21 00:08:46;;;;;;;41.80;20.85;;;14.30;99.90;;;;;;4994755;28;20031;-78
2022/10/21 00:11:12;;;;;;;40.10;20.52;;;14.30;99.90;;;;;;4993404;28;20042;-78
2022/10/21 00:13:39;;;;;;;43.90;21.50;;;14.30;99.90;;;;;;4992697;28;20041;-79
2022/10/21 00:16:23;;;;;;;45.80;20.27;;;14.20;99.90;;;;;;4991743;28;20041;-78
2022/10/21 00:18:49;;;;;;;38.08;20.20;;;14.20;99.90;;;;;;4992021;28;20238;-79
2022/10/21 00:21:19;;;;;;;44.42;20.50;;;14.10;99.90;;;;;;4992794;28;20030;-79
2022/10/21 00:23:46;;;;;;;42.42;20.08;;;14.10;99.90;;;;;;4992132;28;20038;-79
2022/10/21 00:26:13;;;;;;;42.63;21.40;;;14.00;99.90;;;;;;4991013;28;20030;-79
2022/10/21 00:28:40;;;;;;;42.63;20.08;;;14.00;99.90;;;;;;4992032;28;20022;-78
2022/10/21 00:31:08;;;;;;;42.80;21.75;;;14.00;99.90;;;;;;4992663;28;20828;-77
2022/10/21 00:33:35;;;;;;;49.70;21.40;;;14.00;99.90;;;;;;4991821;28;20038;-77
2022/10/21 00:36:02;;;;;;;41.20;22.00;;;14.00;99.90;;;;;;4991010;28;20046;-78
2022/10/21 00:38:33;;;;;;;47.60;22.23;;;14.10;99.90;;;;;;4991994;28;20041;-77
2022/10/21 00:40:59;;;;;;;53.40;24.00;;;14.10;99.90;;;;;;4992885;28;20037;-78
2022/10/21 00:43:29;;;;;;;49.28;22.77;;;14.10;99.90;;;;;;4991036;28;20042;-78
2022/10/21 00:46:04;;;;;;;51.17;23.48;;;14.10;99.90;;;;;;4991071;28;20042;-80
2022/10/21 00:48:40;;;;;;;42.22;23.08;;;14.10;99.90;;;;;;4990505;28;20046;-77
2022/10/21 00:51:09;;;;;;;51.97;23.05;;;14.20;99.90;;;;;;4990867;28;20042;-79
2022/10/21 00:53:39;;;;;;;54.42;22.55;;;14.20;99.90;;;;;;4991601;28;20460;-80
2022/10/21 00:56:09;;;;;;;46.65;22.02;;;14.20;99.90;;;;;;4991184;28;20033;-79
2022/10/21 00:58:36;;;;;;;35.13;19.63;;;14.20;99.90;;;;;;4991987;28;20034;-77
2022/10/21 01:01:05;;;;;;;47.05;21.45;;;14.10;99.90;;;;;;4992425;28;20038;-78
2022/10/21 01:03:33;;;;;;;50.97;22.23;;;14.10;99.90;;;;;;4992626;28;20384;-77
2022/10/21 01:06:04;;;;;;;52.88;23.40;;;14.10;99.90;;;;;;4997116;28;20039;-77
2022/10/21 01:08:31;;;;;;;58.92;23.20;;;14.10;99.90;;;;;;4998546;28;20042;-77
2022/10/21 01:10:59;;;;;;;55.67;24.27;;;14.00;99.90;;;;;;5008686;28;20033;-78
2022/10/21 01:14:02;;;;;;;50.70;22.77;;;14.00;99.90;;;;;;5005951;28;20034;-78
2022/10/21 01:16:55;;;;;;;57.60;24.58;;;14.00;99.90;;;;;;4990934;28;20036;-78
2022/10/21 01:19:43;;;;;;;59.38;24.23;;;13.90;99.90;;;;;;4992346;28;20034;-78
2022/10/21 01:22:42;;;;;;;51.40;24.98;;;13.90;99.90;;;;;;4992535;28;20034;-77
2022/10/21 01:25:54;;;;;;;60.55;26.65;;;13.90;99.90;;;;;;4991135;28;20035;-77
2022/10/21 01:28:32;;;;;;;49.92;24.15;;;13.80;99.90;;;;;;4916271;29;20044;-78
2022/10/21 01:31:19;;;;;;;57.90;26.63;;;13.80;99.90;;;;;;4991386;28;20046;-78
2022/10/21 01:33:53;;;;;;;65.68;24.73;;;13.80;99.90;;;;;;4990525;28;20043;-77
2022/10/21 01:36:38;;;;;;;62.22;24.48;;;13.80;99.90;;;;;;4994897;28;20034;-78
2022/10/21 01:39:34;;;;;;;64.53;24.80;;;13.70;99.90;;;;;;4995851;28;20038;-78
2022/10/21 01:42:09;;;;;;;63.63;26.15;;;13.70;99.90;;;;;;4995838;28;20030;-77
2022/10/21 01:44:49;;;;;;;60.13;25.17;;;13.70;99.90;;;;;;4994856;28;20050;-77
2022/10/21 01:47:38;;;;;;;53.28;23.63;;;13.60;99.90;;;;;;4994289;28;20045;-77
2022/10/21 01:50:09;;;;;;;67.53;25.45;;;13.50;99.90;;;;;;4995739;28;20055;-77
2022/10/21 01:52:38;;;;;;;56.38;24.45;;;13.50;99.90;;;;;;4988295;28;20408;-77
2022/10/21 01:55:11;;;;;;;52.85;24.70;;;13.50;99.90;;;;;;4995151;28;20035;-77
2022/10/21 01:57:43;;;;;;;53.17;24.27;;;13.50;99.90;;;;;;4996890;28;20030;-76
2022/10/21 02:00:09;;;;;;;56.70;24.58;;;13.40;99.90;;;;;;4995754;28;20037;-77
2022/10/21 02:02:44;;;;;;;61.58;24.88;;;13.40;99.90;;;;;;4994633;28;20031;-76
2022/10/21 02:05:18;;;;;;;60.03;25.20;;;13.30;99.90;;;;;;4994473;28;20037;-77
2022/10/21 02:07:44;;;;;;;55.15;25.08;;;13.30;99.90;;;;;;4994568;28;20037;-79
2022/10/21 02:10:10;;;;;;;56.00;23.50;;;13.30;99.90;;;;;;4995561;28;20034;-79
2022/10/21 02:12:39;;;;;;;72.60;27.08;;;13.30;99.90;;;;;;4994448;28;20421;-78
2022/10/21 02:15:11;;;;;;;60.65;24.77;;;13.30;99.90;;;;;;4993644;28;20049;-76
2022/10/21 02:17:41;;;;;;;52.03;24.95;;;13.30;99.90;;;;;;4994319;28;20391;-76
2022/10/21 02:20:10;;;;;;;53.75;25.80;;;13.30;99.90;;;;;;4995160;28;20030;-77
2022/10/21 02:22:39;;;;;;;61.03;26.48;;;13.30;99.90;;;;;;4994530;28;20118;-77
2022/10/21 02:25:16;;;;;;;67.03;26.88;;;13.20;99.90;;;;;;4993778;28;20061;-75
2022/10/21 02:27:42;;;;;;;68.40;27.10;;;13.20;99.90;;;;;;4994297;28;20034;-77
2022/10/21 02:30:09;;;;;;;65.40;27.13;;;13.20;99.90;;;;;;4994880;28;20387;-77
2022/10/21 02:33:16;;;;;;;67.05;27.27;;;13.20;99.90;;;;;;4994320;28;20042;-74
2022/10/21 02:36:12;;;;;;;66.68;26.33;;;13.10;99.90;;;;;;4982269;28;20464;-78
2022/10/21 02:38:50;;;;;;;60.10;26.48;;;13.10;99.90;;;;;;4993516;28;20033;-76
2022/10/21 02:41:20;;;;;;;69.07;26.88;;;13.20;99.90;;;;;;4994578;28;20054;-79
2022/10/21 02:44:01;;;;;;;60.72;26.80;;;13.10;99.90;;;;;;4994189;28;20034;-78
2022/10/21 02:46:39;;;;;;;61.88;27.30;;;13.20;99.90;;;;;;4995793;28;20046;-78
2022/10/21 02:49:05;;;;;;;53.95;25.98;;;13.20;99.90;;;;;;4994755;28;20033;-77
2022/10/21 02:51:32;;;;;;;64.25;27.08;;;13.30;99.90;;;;;;4994448;28;20038;-77
2022/10/21 02:53:58;;;;;;;60.65;27.77;;;13.30;99.90;;;;;;4993583;28;20448;-76
2022/10/21 02:56:25;;;;;;;64.10;28.15;;;13.30;99.90;;;;;;4992867;28;20041;-77
2022/10/21 02:58:51;;;;;;;65.20;27.00;;;13.30;99.90;;;;;;4993614;28;20045;-78
2022/10/21 03:01:18;;;;;;;69.22;28.90;;;13.30;99.90;;;;;;4994310;28;20034;-78
2022/10/21 03:03:44;;;;;;;59.42;26.77;;;13.40;99.90;;;;;;4996469;28;20037;-76
2022/10/21 03:06:10;;;;;;;61.30;26.42;;;13.40;99.90;;;;;;4993764;28;20027;-78
2022/10/21 03:08:36;;;;;;;64.88;28.33;;;13.30;99.90;;;;;;4992630;28;20046;-76
2022/10/21 03:11:02;;;;;;;63.40;28.17;;;13.30;99.90;;;;;;4994062;28;20030;-77
2022/10/21 03:13:29;;;;;;;68.65;28.00;;;13.30;99.90;;;;;;4994111;28;20042;-77
2022/10/21 03:15:55;;;;;;;62.72;28.73;;;13.20;99.90;;;;;;4992234;28;20030;-77
2022/10/21 03:18:21;;;;;;;58.20;26.33;;;13.20;99.90;;;;;;4994081;28;20035;-78
2022/10/21 03:20:49;;;;;;;74.13;29.42;;;13.20;99.90;;;;;;4993267;28;20037;-77
2022/10/21 03:23:16;;;;;;;83.63;28.23;;;13.30;99.90;;;;;;4993640;28;20076;-77
2022/10/21 03:25:42;;;;;;;67.05;30.10;;;13.20;99.90;;;;;;4991432;28;20046;-76
2022/10/21 03:28:09;;;;;;;72.22;27.85;;;13.30;99.90;;;;;;4992494;28;20045;-77
2022/10/21 03:30:35;;;;;;;67.18;27.60;;;13.20;99.90;;;;;;4992000;28;20042;-76
2022/10/21 03:33:01;;;;;;;68.00;29.88;;;13.30;99.90;;;;;;4992763;28;20042;-76
2022/10/21 03:35:27;;;;;;;74.85;29.33;;;13.20;99.90;;;;;;4990812;28;20038;-77
2022/10/21 03:37:53;;;;;;;66.82;28.17;;;13.20;99.90;;;;;;4993261;28;20030;-78
2022/10/21 03:40:20;;;;;;;73.43;29.63;;;13.20;99.90;;;;;;4993706;28;20031;-77
2022/10/21 03:42:46;;;;;;;71.00;28.17;;;13.20;99.90;;;;;;4992816;28;20384;-77
2022/10/21 03:45:12;;;;;;;75.03;29.77;;;13.20;99.90;;;;;;4992182;28;20038;-77
2022/10/21 03:47:38;;;;;;;64.18;28.42;;;13.20;99.90;;;;;;4989946;28;20035;-77
2022/10/21 03:50:06;;;;;;;70.75;28.05;;;13.20;99.90;;;;;;4988514;28;20061;-77
2022/10/21 03:52:32;;;;;;;61.13;27.38;;;13.20;99.90;;;;;;4992813;28;20133;-77
2022/10/21 03:54:58;;;;;;;70.75;28.80;;;13.20;99.90;;;;;;4990078;28;20034;-76
2022/10/21 03:57:24;;;;;;;67.07;27.20;;;13.10;99.90;;;;;;4991502;28;20038;-76
2022/10/21 03:59:51;;;;;;;74.20;27.27;;;13.10;99.90;;;;;;4992402;28;20482;-76
2022/10/21 04:02:17;;;;;;;69.32;27.77;;;13.10;99.90;;;;;;4986514;28;20391;-75
2022/10/21 04:04:43;;;;;;;66.72;26.60;;;13.10;99.90;;;;;;4991496;28;20034;-76
2022/10/21 04:07:09;;;;;;;76.65;28.27;;;13.10;99.90;;;;;;4991876;28;20029;-76
2022/10/21 04:09:35;;;;;;;70.53;26.88;;;13.10;99.90;;;;;;4991666;28;20037;-77
2022/10/21 04:12:02;;;;;;;70.97;27.40;;;13.10;99.90;;;;;;4991779;28;20038;-76
2022/10/21 04:14:28;;;;;;;76.63;27.45;;;13.10;99.90;;;;;;4993050;28;20034;-76
2022/10/21 04:16:54;;;;;;;69.70;27.08;;;13.00;99.90;;;;;;4988052;28;20490;-76
2022/10/21 04:19:20;;;;;;;71.75;26.95;;;13.00;99.90;;;;;;4990560;28;20026;-76
2022/10/21 04:21:46;;;;;;;70.38;26.75;;;13.00;99.90;;;;;;4990683;28;20030;-76
2022/10/21 04:24:12;;;;;;;66.88;26.52;;;13.00;99.90;;;;;;4992642;28;20065;-76
2022/10/21 04:26:41;;;;;;;61.95;26.73;;;12.90;99.90;;;;;;4991006;28;20034;-76
2022/10/21 04:29:07;;;;;;;66.95;24.67;;;13.00;99.90;;;;;;4993625;28;20034;-74
2022/10/21 04:31:34;;;;;;;77.55;27.00;;;12.90;99.90;;;;;;4992480;28;20376;-76
2022/10/21 04:34:00;;;;;;;76.80;27.58;;;12.90;99.90;;;;;;4991827;28;20026;-75
2022/10/21 04:36:26;;;;;;;76.80;26.65;;;13.00;99.90;;;;;;4990752;28;20042;-76
2022/10/21 04:38:52;;;;;;;72.90;26.05;;;13.00;99.90;;;;;;4991815;28;20027;-76
2022/10/21 04:41:18;;;;;;;74.20;25.70;;;13.00;99.90;;;;;;4992407;28;20491;-76
2022/10/21 04:43:44;;;;;;;68.82;28.60;;;13.00;99.90;;;;;;4990220;28;20416;-76
2022/10/21 04:46:15;;;;;;;73.30;28.30;;;13.00;99.90;;;;;;4990801;28;20041;-75
2022/10/21 04:48:42;;;;;;;68.13;28.42;;;13.00;99.90;;;;;;4987670;28;20030;-76
2022/10/21 04:51:08;;;;;;;78.47;29.73;;;13.00;99.90;;;;;;4990287;28;20047;-76
2022/10/21 04:53:34;;;;;;;86.55;27.58;;;13.00;99.90;;;;;;4991996;28;20042;-75
2022/10/21 04:56:01;;;;;;;88.85;35.08;;;13.00;99.90;;;;;;4989064;28;20026;-77
2022/10/21 04:58:27;;;;;;;80.00;30.77;;;13.00;99.90;;;;;;4992284;28;20041;-75
2022/10/21 05:00:53;;;;;;;74.43;29.08;;;13.00;99.90;;;;;;4991130;28;20460;-76
2022/10/21 05:03:19;;;;;;;76.35;28.20;;;12.90;99.90;;;;;;4992723;28;20476;-76
2022/10/21 05:05:50;;;;;;;63.80;26.27;;;12.90;99.90;;;;;;4990001;28;20034;-76
2022/10/21 05:08:16;;;;;;;77.22;26.20;;;13.00;99.90;;;;;;4990754;28;20049;-75
2022/10/21 05:10:43;;;;;;;73.20;25.20;;;12.90;99.90;;;;;;4989402;28;20026;-77
2022/10/21 05:13:09;;;;;;;76.22;26.70;;;12.90;99.90;;;;;;4990321;28;20050;-76
2022/10/21 05:15:35;;;;;;;64.57;25.40;;;12.90;99.90;;;;;;4988882;28;20034;-75
2022/10/21 05:18:01;;;;;;;64.82;25.08;;;12.90;99.90;;;;;;4991821;28;20250;-75
2022/10/21 05:20:28;;;;;;;67.32;24.10;;;12.80;99.90;;;;;;4990922;28;20026;-75
2022/10/21 05:22:54;;;;;;;77.90;26.38;;;12.80;99.90;;;;;;4993396;28;20034;-76
2022/10/21 05:25:20;;;;;;;68.95;26.90;;;12.80;99.90;;;;;;5001336;28;20035;-73
2022/10/21 05:27:47;;;;;;;69.03;28.83;;;12.80;99.90;;;;;;5006607;28;20034;-76
2022/10/21 05:30:13;;;;;;;75.65;28.33;;;12.90;99.90;;;;;;4989224;28;20480;-75
2022/10/21 05:32:40;;;;;;;66.22;26.52;;;12.90;99.90;;;;;;4985425;28;20046;-76
2022/10/21 05:35:10;;;;;;;61.15;28.33;;;13.00;99.90;;;;;;4989816;28;20038;-75
2022/10/21 05:37:37;;;;;;;71.15;29.20;;;13.10;99.90;;;;;;4989460;28;20035;-76
2022/10/21 05:40:04;;;;;;;81.03;28.67;;;13.20;99.90;;;;;;4990863;28;20260;-76
2022/10/21 05:42:30;;;;;;;67.03;28.25;;;13.20;99.90;;;;;;4991826;28;20464;-74
2022/10/21 05:44:56;;;;;;;73.22;29.00;;;13.30;99.90;;;;;;4989605;28;20030;-77
2022/10/21 05:47:22;;;;;;;59.97;27.45;;;13.30;99.90;;;;;;4991585;28;20031;-75
2022/10/21 05:49:49;;;;;;;80.82;31.40;;;13.30;99.90;;;;;;4991225;28;20157;-77
2022/10/21 05:52:15;;;;;;;65.32;28.10;;;13.40;99.90;;;;;;4991862;28;20038;-75
2022/10/21 05:54:44;;;;;;;68.68;27.35;;;13.40;99.90;;;;;;4990626;28;20046;-76
2022/10/21 05:57:10;;;;;;;76.32;28.73;;;13.40;99.90;;;;;;4991076;28;20480;-76
2022/10/21 05:59:36;;;;;;;64.07;26.73;;;13.40;99.90;;;;;;4990374;28;20043;-76
2022/10/21 06:02:02;;;;;;;66.60;27.20;;;13.40;99.90;;;;;;4989831;28;20045;-76
2022/10/21 06:04:28;;;;;;;57.08;26.95;;;13.40;99.90;;;;;;4990194;28;20030;-77
2022/10/21 06:06:55;;;;;;;65.25;28.10;;;13.40;99.90;;;;;;4992227;28;20035;-78
2022/10/21 06:09:21;;;;;;;54.47;25.08;;;13.50;99.90;;;;;;4992905;28;20022;-79
2022/10/21 06:11:47;;;;;;;59.13;25.67;;;13.50;99.90;;;;;;4993267;28;20038;-77
2022/10/21 06:14:13;;;;;;;65.63;26.48;;;13.50;99.90;;;;;;4996142;28;20053;-75
2022/10/21 06:16:39;;;;;;;60.45;24.67;;;13.50;99.90;;;;;;4995860;28;20487;-75
2022/10/21 06:19:05;;;;;;;50.35;23.85;;;13.50;99.90;;;;;;4994248;28;20378;-74
2022/10/21 06:21:32;;;;;;;54.35;22.20;;;13.50;99.90;;;;;;4994893;28;20046;-76
2022/10/21 06:23:58;;;;;;;49.13;24.00;;;13.60;99.90;;;;;;4994729;28;20562;-76
2022/10/21 06:26:24;;;;;;;60.35;24.60;;;13.60;99.90;;;;;;4994064;28;20026;-76
2022/10/21 06:28:50;;;;;;;54.65;22.23;;;13.60;99.90;;;;;;4993517;28;20138;-77
2022/10/21 06:31:19;;;;;;;66.22;25.15;;;13.60;99.90;;;;;;4995137;28;20360;-77
2022/10/21 06:33:45;;;;;;;60.67;24.33;;;13.60;99.90;;;;;;4994436;28;20031;-77
2022/10/21 06:36:12;;;;;;;51.78;21.88;;;13.70;99.90;;;;;;4993699;28;20372;-76
2022/10/21 06:38:38;;;;;;;55.42;23.38;;;13.70;99.90;;;;;;4995136;28;20022;-77
2022/10/21 06:41:06;;;;;;;61.13;24.88;;;13.70;99.90;;;;;;4994836;28;20033;-76
2022/10/21 06:43:33;;;;;;;53.83;22.05;;;13.70;99.90;;;;;;4995212;28;20030;-77
2022/10/21 06:46:00;;;;;;;50.38;21.73;;;13.80;99.90;;;;;;4993149;28;20026;-75
2022/10/21 06:48:26;;;;;;;51.42;20.67;;;13.80;99.90;;;;;;4993736;28;20452;-75
2022/10/21 06:51:00;;;;;;;50.22;20.02;;;13.80;99.90;;;;;;4994990;28;20055;-76
2022/10/21 06:53:27;;;;;;;45.35;21.77;;;13.80;99.90;;;;;;4989262;28;20050;-76
2022/10/21 06:56:00;;;;;;;45.42;19.80;;;13.90;99.90;;;;;;4993214;28;20057;-75
2022/10/21 06:58:26;;;;;;;46.90;21.20;;;13.90;99.90;;;;;;4995075;28;20041;-75
2022/10/21 07:00:52;;;;;;;42.28;19.38;;;13.90;99.90;;;;;;4996629;28;20049;-76
2022/10/21 07:03:18;;;;;;;41.60;20.05;;;14.00;99.90;;;;;;4995659;28;20037;-76
2022/10/21 07:05:45;;;;;;;43.30;19.67;;;14.00;99.90;;;;;;4986378;28;20038;-77
2022/10/21 07:08:11;;;;;;;47.97;19.65;;;14.00;99.90;;;;;;4994443;28;20364;-75
2022/10/21 07:10:37;;;;;;;45.17;19.17;;;14.00;99.90;;;;;;4994417;28;20030;-77
2022/10/21 07:13:03;;;;;;;52.00;19.90;;;14.00;99.90;;;;;;4994087;28;20286;-76
2022/10/21 07:15:29;;;;;;;51.85;20.80;;;14.10;99.90;;;;;;4993154;28;20448;-75
2022/10/21 07:17:59;;;;;;;40.88;20.42;;;14.10;99.90;;;;;;4992689;28;20037;-77
2022/10/21 07:20:26;;;;;;;45.88;21.75;;;14.10;99.90;;;;;;4994204;28;20038;-75
2022/10/21 07:22:52;;;;;;;44.47;18.25;;;14.20;99.90;;;;;;4993811;28;20030;-76
2022/10/21 07:25:18;;;;;;;47.45;20.05;;;14.20;99.90;;;;;;4992627;28;20033;-77
2022/10/21 07:27:47;;;;;;;46.55;20.52;;;14.20;99.90;;;;;;4994127;28;20034;-80
2022/10/21 07:30:13;;;;;;;43.30;17.95;;;14.20;99.90;;;;;;4994490;28;20034;-77
2022/10/21 07:32:39;;;;;;;37.90;17.20;;;14.20;99.90;;;;;;4994199;28;20488;-77
2022/10/21 07:35:06;;;;;;;39.35;18.98;;;14.30;99.90;;;;;;4992025;28;20038;-77
2022/10/21 07:37:32;;;;;;;34.30;16.77;;;14.30;99.90;;;;;;4994226;28;20038;-76
2022/10/21 07:39:58;;;;;;;49.67;18.20;;;14.30;99.90;;;;;;4992104;28;20053;-75
2022/10/21 07:42:26;;;;;;;43.53;17.02;;;14.30;99.90;;;;;;4992804;28;20030;-77
2022/10/21 07:44:56;;;;;;;44.05;17.60;;;14.30;99.90;;;;;;4992051;28;20042;-77
2022/10/21 07:47:22;;;;;;;43.13;18.27;;;14.30;99.90;;;;;;4993975;28;20363;-77
2022/10/21 07:49:48;;;;;;;39.33;18.65;;;14.40;99.90;;;;;;4977693;28;20050;-78
2022/10/21 07:52:15;;;;;;;41.53;18.90;;;14.40;99.90;;;;;;4994405;28;20038;-77
2022/10/21 07:54:41;;;;;;;40.70;17.90;;;14.40;99.90;;;;;;4992244;28;20037;-77
2022/10/21 07:57:07;;;;;;;44.40;20.95;;;14.40;99.90;;;;;;4991731;28;20042;-77
2022/10/21 07:59:33;;;;;;;48.80;19.83;;;14.40;99.90;;;;;;4993779;28;20032;-76
2022/10/21 08:01:59;;;;;;;46.92;19.25;;;14.40;99.90;;;;;;4991729;28;20041;-75
2022/10/21 08:04:28;;;;;;;47.85;20.95;;;14.50;99.90;;;;;;4986443;28;20026;-76
2022/10/21 08:06:55;;;;;;;38.75;18.40;;;14.50;99.90;;;;;;4985680;28;20125;-76
2022/10/21 08:09:21;;;;;;;37.13;19.67;;;14.50;99.90;;;;;;4993390;28;20030;-76
2022/10/21 08:11:47;;;;;;;40.78;18.52;;;14.50;99.90;;;;;;4992838;28;20033;-78
2022/10/21 08:14:14;;;;;;;44.72;19.02;;;14.50;99.90;;;;;;4992890;28;20049;-76
2022/10/21 08:16:41;;;;;;;42.92;18.65;;;14.50;99.90;;;;;;4992441;28;20045;-77
2022/10/21 08:19:08;;;;;;;39.45;16.63;;;14.50;99.90;;;;;;4997196;28;20033;-77
2022/10/21 08:21:36;;;;;;;34.78;16.00;;;14.50;99.90;;;;;;4993190;28;20038;-77
2022/10/21 08:24:03;;;;;;;33.28;15.20;;;14.50;99.90;;;;;;4990181;28;20377;-76
2022/10/21 08:26:29;;;;;;;35.97;16.35;;;14.60;99.90;;;;;;4989639;28;20395;-76
2022/10/21 08:28:55;;;;;;;33.85;15.50;;;14.50;99.90;;;;;;4989654;28;20380;-76
2022/10/21 08:31:22;;;;;;;32.90;15.43;;;14.50;99.90;;;;;;4989211;28;20026;-77
2022/10/21 08:33:49;;;;;;;36.42;16.75;;;14.60;99.90;;;;;;4991667;28;20041;-78
2022/10/21 08:36:21;;;;;;;36.03;16.67;;;14.60;99.90;;;;;;4987514;28;20468;-77
2022/10/21 08:38:50;;;;;;;32.00;15.95;;;14.60;99.90;;;;;;4992610;28;20507;-78
2022/10/21 08:41:28;;;;;;;39.10;16.02;;;14.70;99.90;;;;;;4994955;28;20471;-76
2022/10/21 08:44:00;;;;;;;31.73;15.65;;;14.60;99.90;;;;;;4992085;28;20042;-76
2022/10/21 08:46:32;;;;;;;30.25;15.93;;;14.70;99.90;;;;;;4988316;28;20034;-77
2022/10/21 08:49:23;;;;;;;33.80;16.45;;;14.70;99.90;;;;;;4990918;28;20034;-77
2022/10/21 08:51:56;;;;;;;34.63;16.05;;;14.70;99.90;;;;;;4989355;28;20453;-78
2022/10/21 08:54:40;;;;;;;39.20;16.58;;;14.70;99.90;;;;;;4988272;28;20045;-77
2022/10/21 08:57:09;;;;;;;31.88;15.50;;;14.70;99.90;;;;;;4991160;28;20103;-77
2022/10/21 08:59:35;;;;;;;31.70;15.02;;;14.80;99.90;;;;;;4990610;28;20022;-76
2022/10/21 09:02:20;;;;;;;30.73;16.00;;;14.80;99.90;;;;;;4991511;28;20479;-77
2022/10/21 09:05:05;;;;;;;30.95;15.88;;;14.70;99.90;;;;;;4987941;28;20045;-76
2022/10/21 09:07:53;;;;;;;34.20;15.88;;;14.80;99.90;;;;;;4989913;28;20050;-75
2022/10/21 09:10:31;;;;;;;34.03;14.57;;;14.80;99.90;;;;;;4988664;28;20030;-75
2022/10/21 09:13:11;;;;;;;32.95;15.23;;;14.80;99.90;;;;;;4990273;28;20460;-77
2022/10/21 09:15:52;;;;;;;36.45;18.35;;;14.80;99.90;;;;;;4986501;28;20050;-76
2022/10/21 09:18:18;;;;;;;;;;;14.90;99.90;;;;;;4986944;28;20352;-77
2022/10/21 09:20:51;;;;;;;33.25;14.52;;;14.80;99.90;;;;;;4989311;28;20132;-77
2022/10/21 09:23:39;;;;;;;32.42;15.38;;;14.80;99.90;;;;;;4992300;28;20049;-77
2022/10/21 09:26:32;;;;;;;36.08;15.82;;;14.90;99.90;;;;;;4989898;28;20041;-77
2022/10/21 09:29:07;;;;;;;38.88;15.13;;;15.00;99.90;;;;;;4991697;28;20034;-75
2022/10/21 09:31:33;;;;;;;38.55;14.93;;;15.00;99.90;;;;;;4992629;28;20030;-76
2022/10/21 09:34:05;;;;;;;35.83;14.93;;;15.00;99.90;;;;;;4992703;28;20054;-76
2022/10/21 09:36:46;;;;;;;37.92;16.50;;;14.90;99.90;;;;;;4990919;28;20061;-76
2022/10/21 09:39:21;;;;;;;36.05;16.38;;;15.00;99.90;;;;;;4993436;28;20026;-76
2022/10/21 09:41:54;;;;;;;35.17;15.70;;;15.00;99.90;;;;;;5007610;28;20027;-75
2022/10/21 09:44:22;;;;;;;34.20;16.55;;;15.00;99.90;;;;;;5003150;28;20043;-77
2022/10/21 09:46:50;;;;;;;28.92;16.30;;;14.90;99.90;;;;;;4988904;28;20026;-76
2022/10/21 09:49:37;;;;;;;35.00;15.32;;;14.90;99.90;;;;;;4995424;28;20034;-75
2022/10/21 09:52:05;;;;;;;27.80;14.45;;;14.90;99.90;;;;;;4990459;28;20034;-75
2022/10/21 09:54:36;;;;;;;30.05;13.75;;;14.90;99.90;;;;;;4994413;28;20375;-75
2022/10/21 09:57:22;;;;;;;30.45;14.07;;;15.00;99.90;;;;;;4994745;28;20502;-76
2022/10/21 09:59:58;;;;;;;33.47;15.15;;;14.90;99.90;;;;;;4995827;28;20034;-74
2022/10/21 10:02:37;;;;;;;28.25;12.63;;;14.90;99.90;;;;;;4995649;28;20030;-75
2022/10/21 10:05:38;;;;;;;28.65;12.88;;;14.90;99.90;;;;;;4989292;28;20038;-75
2022/10/21 10:08:41;;;;;;;21.25;10.75;;;14.90;99.90;;;;;;4963272;28;20038;-74
2022/10/21 10:11:13;;;;;;;30.27;11.57;;;14.90;99.90;;;;;;4963314;28;20038;-74
2022/10/21 10:13:45;;;;;;;28.60;11.88;;;15.00;99.90;;;;;;4994990;28;20134;-75
2022/10/21 10:16:22;;;;;;;20.17;11.43;;;14.90;99.90;;;;;;4993596;28;20474;-74
2022/10/21 10:18:51;;;;;;;30.63;13.95;;;14.90;99.90;;;;;;4995342;28;20030;-73
2022/10/21 10:21:21;;;;;;;23.95;11.27;;;14.90;99.90;;;;;;4995155;28;20027;-75
2022/10/21 10:23:51;;;;;;;18.98;9.60;;;15.00;99.90;;;;;;4996550;28;20038;-75
2022/10/21 10:26:20;;;;;;;15.90;9.07;;;14.90;99.90;;;;;;4993125;28;20037;-76
2022/10/21 10:28:53;;;;;;;8.57;4.32;;;15.00;99.90;;;;;;4995240;28;20049;-76
2022/10/21 10:31:28;;;;;;;11.30;4.80;;;15.00;99.90;;;;;;4994928;28;20482;-76
2022/10/21 10:33:59;;;;;;;11.50;4.90;;;15.00;99.90;;;;;;4994829;28;20049;-82
2022/10/21 10:36:36;;;;;;;13.70;5.50;;;15.10;99.90;;;;;;4993383;28;20042;-75
2022/10/21 10:39:06;;;;;;;14.52;6.65;;;15.10;99.90;;;;;;4994618;28;20045;-76
2022/10/21 10:41:40;;;;;;;15.73;6.90;;;15.20;99.90;;;;;;4995017;28;20030;-75
2022/10/21 10:44:31;;;;;;;13.63;7.07;;;15.40;99.90;;;;;;4993974;28;20043;-76
2022/10/21 10:46:58;;;;;;;;;;;15.60;99.90;;;;;;4994727;28;20039;-77
2022/10/21 10:49:25;;;;;;;11.80;5.45;;;15.80;99.90;;;;;;4995130;28;19914;-76
2022/10/21 10:52:10;;;;;;;9.68;3.88;;;16.00;99.90;;;;;;4995256;28;20033;-75
2022/10/21 10:54:41;;;;;;;7.90;3.13;;;15.90;99.90;;;;;;4993157;28;20030;-76
2022/10/21 10:57:13;;;;;;;9.02;3.78;;;15.90;99.90;;;;;;4994158;28;20034;-75
2022/10/21 10:59:51;;;;;;;8.93;5.90;;;15.80;99.90;;;;;;4993142;28;20049;-75
2022/10/21 11:02:29;;;;;;;11.93;7.30;;;15.90;99.90;;;;;;4993944;28;20042;-74
2022/10/21 11:05:13;;;;;;;17.20;12.05;;;16.00;99.90;;;;;;4993631;28;20030;-76
2022/10/21 11:07:53;;;;;;;12.65;8.43;;;16.20;99.90;;;;;;4994532;28;20030;-74
2022/10/21 11:10:37;;;;;;;8.85;5.28;;;16.20;99.90;;;;;;4994198;28;20030;-75
2022/10/21 11:13:10;;;;;;;7.57;4.03;;;16.20;99.90;;;;;;4993987;28;20030;-75
2022/10/21 11:16:01;;;;;;;9.38;4.20;;;16.20;99.90;;;;;;4992887;28;20038;-74
2022/10/21 11:18:43;;;;;;;7.30;4.03;;;16.20;99.90;;;;;;4994550;28;20022;-76
2022/10/21 11:21:29;;;;;;;4.25;3.78;;;16.20;99.90;;;;;;4992675;28;20463;-76
2022/10/21 11:23:58;;;;;;;10.27;4.05;;;16.40;99.90;;;;;;4990593;28;20068;-77
2022/10/21 11:26:53;;;;;;;7.60;3.83;;;16.50;99.90;;;;;;4993595;28;20084;-76
2022/10/21 11:29:38;;;;;;;10.32;8.80;;;16.50;99.90;;;;;;4993861;28;20030;-75
2022/10/21 11:32:21;;;;;;;8.65;5.07;;;16.50;99.90;;;;;;4986309;28;20037;-75
2022/10/21 11:35:12;;;;;;;13.05;10.18;;;16.50;99.90;;;;;;4993095;28;20038;-75
2022/10/21 11:37:56;;;;;;;11.07;6.60;;;16.40;99.90;;;;;;4992711;28;20034;-74
2022/10/21 11:40:29;;;;;;;7.57;4.53;;;16.40;99.90;;;;;;4994288;28;20034;-74
2022/10/21 11:43:04;;;;;;;7.47;2.88;;;16.50;99.90;;;;;;4992768;28;20476;-77
2022/10/21 11:45:51;;;;;;;9.15;6.25;;;16.40;99.90;;;;;;4994177;28;20034;-74
2022/10/21 11:48:39;;;;;;;7.40;4.60;;;16.20;99.90;;;;;;4993252;28;20038;-72
2022/10/21 11:51:23;;;;;;;7.28;5.53;;;16.30;99.90;;;;;;4983481;28;20043;-75
2022/10/21 11:54:08;;;;;;;6.65;2.83;;;16.40;99.90;;;;;;4992667;28;20371;-74
2022/10/21 11:57:10;;;;;;;5.22;2.15;;;16.40;99.90;;;;;;4993690;28;20458;-74
2022/10/21 11:59:58;;;;;;;4.35;2.38;;;16.30;99.90;;;;;;4988585;28;20038;-74
2022/10/21 12:02:41;;;;;;;12.20;3.72;;;16.20;99.90;;;;;;4992329;28;20030;-74
2022/10/21 12:05:13;;;;;;;5.63;1.77;;;16.30;99.90;;;;;;4993413;28;20039;-75
2022/10/21 12:08:13;;;;;;;5.60;2.50;;;16.40;99.90;;;;;;4993748;28;20034;-74
2022/10/21 12:10:51;;;;;;;;;;;16.40;99.90;;;;;;4993176;28;20035;-73
2022/10/21 12:13:29;;;;;;;5.47;3.03;;;16.50;99.90;;;;;;4991389;28;19914;-74
2022/10/21 12:16:09;;;;;;;4.78;2.33;;;16.50;99.90;;;;;;4993150;28;20034;-73
2022/10/21 12:18:52;;;;;;;7.07;4.10;;;16.60;99.90;;;;;;4993323;28;20517;-73
2022/10/21 12:21:23;;;;;;;5.05;2.70;;;16.90;99.90;;;;;;4990875;28;20049;-74
2022/10/21 12:24:45;;;;;;;8.98;3.40;;;17.00;99.90;;;;;;4991503;28;20495;-74
2022/10/21 12:27:25;;;;;;;5.25;2.65;;;17.10;99.90;;;;;;4992136;28;20038;-74
2022/10/21 12:30:12;;;;;;;2.90;1.95;;;16.90;99.90;;;;;;4993123;28;20046;-73
2022/10/21 12:32:42;;;;;;;2.47;1.38;;;16.90;99.90;;;;;;4991426;28;20053;-72
2022/10/21 12:35:13;;;;;;;6.13;2.72;;;16.90;99.90;;;;;;4991278;28;20054;-73
2022/10/21 12:37:45;;;;;;;4.88;2.17;;;17.00;99.90;;;;;;4992574;28;20045;-73
2022/10/21 12:40:32;;;;;;;5.80;1.33;;;17.10;99.90;;;;;;4992099;28;20030;-72
2022/10/21 12:43:02;;;;;;;2.90;1.67;;;16.90;99.90;;;;;;4991319;28;20049;-77
2022/10/21 12:45:34;;;;;;;1.70;1.02;;;17.00;99.90;;;;;;4986584;28;20065;-73
2022/10/21 12:48:05;;;;;;;3.15;1.30;;;16.90;99.90;;;;;;4988256;28;20042;-79
2022/10/21 12:50:33;;;;;;;2.63;0.95;;;17.00;99.90;;;;;;4992288;28;20050;-73
2022/10/21 12:53:19;;;;;;;1.40;0.98;;;17.00;99.90;;;;;;4990457;28;20484;-76
2022/10/21 12:56:05;;;;;;;3.90;1.40;;;17.00;99.90;;;;;;4992624;28;20042;-73